sensor_id;sensor_type;location;lat;lon;timestamp;pressure;altitude;pressure_sealevel;temperature;humidity
10921;BME280;5513;50.580;8.818;2022-09-30T00:01:54;98265.75;;;6.72;100.00
10921;BME280;5513;50.580;8.818;2022-09-30T00:04:23;98269.50;;;6.82;100.00
10921;BME280;5513;50.580;8.818;2022-09-30T00:06:52;98269.44;;;6.69;100.00
10921;BME280;5513;50.580;8.818;2022-09-30T00:09:21;98269.91;;;6.62;100.00
10921;BME280;5513;50.580;8.818;2022-09-30T00:11:50;98264.63;;;6.76;100.00
10921;BME280;5513;50.580;8.818;2022-09-30T00:14:20;98269.63;;;6.66;100.00
10921;BME280;5513;50.580;8.818;2022-09-30T00:16:50;98276.09;;;6.60;100.00
10921;BME280;5513;50.580;8.818;2022-09-30T00:19:19;98270.28;;;6.70;100.00
10921;BME280;5513;50.580;8.818;2022-09-30T00:21:48;98282.97;;;6.63;100.00
10921;BME280;5513;50.580;8.818;2022-09-30T00:24:17;98278.19;;;6.41;100.00
10921;BME280;5513;50.580;8.818;2022-09-30T00:26:45;98274.31;;;6.32;100.00
10921;BME280;5513;50.580;8.818;2022-09-30T00:29:13;98284.34;;;6.26;100.00
10921;BME280;5513;50.580;8.818;2022-09-30T00:31:42;98279.41;;;6.21;100.00
10921;BME280;5513;50.580;8.818;2022-09-30T00:34:11;98280.22;;;6.36;100.00
10921;BME280;5513;50.580;8.818;2022-09-30T00:36:42;98278.38;;;6.38;100.00
10921;BME280;5513;50.580;8.818;2022-09-30T00:39:14;98283.06;;;6.33;100.00
10921;BME280;5513;50.580;8.818;2022-09-30T00:41:45;98280.53;;;6.31;100.00
10921;BME280;5513;50.580;8.818;2022-09-30T00:47:42;98281.66;;;6.42;100.00
10921;BME280;5513;50.580;8.818;2022-09-30T00:50:36;98284.75;;;6.34;100.00
10921;BME280;5513;50.580;8.818;2022-09-30T00:53:09;98284.19;;;6.57;100.00
10921;BME280;5513;50.580;8.818;2022-09-30T00:55:47;98288.50;;;6.44;100.00
10921;BME280;5513;50.580;8.818;2022-09-30T00:58:21;98283.34;;;6.43;100.00
10921;BME280;5513;50.580;8.818;2022-09-30T01:00:53;98288.69;;;6.27;100.00
10921;BME280;5513;50.580;8.818;2022-09-30T01:03:22;98288.88;;;6.24;100.00
10921;BME280;5513;50.580;8.818;2022-09-30T01:05:52;98285.03;;;6.29;100.00
10921;BME280;5513;50.580;8.818;2022-09-30T01:08:22;98284.84;;;6.32;100.00
10921;BME280;5513;50.580;8.818;2022-09-30T01:10:51;98290.84;;;6.35;100.00
10921;BME280;5513;50.580;8.818;2022-09-30T01:13:22;98293.47;;;6.35;100.00
10921;BME280;5513;50.580;8.818;2022-09-30T01:18:55;98298.75;;;6.20;100.00
10921;BME280;5513;50.580;8.818;2022-09-30T01:25:00;98298.91;;;6.03;100.00
10921;BME280;5513;50.580;8.818;2022-09-30T01:28:00;98304.88;;;5.91;100.00
10921;BME280;5513;50.580;8.818;2022-09-30T01:30:56;98313.75;;;5.88;100.00
10921;BME280;5513;50.580;8.818;2022-09-30T01:33:37;98305.63;;;5.93;100.00
10921;BME280;5513;50.580;8.818;2022-09-30T01:36:19;98317.38;;;5.71;100.00
10921;BME280;5513;50.580;8.818;2022-09-30T01:39:03;98313.13;;;5.69;100.00
10921;BME280;5513;50.580;8.818;2022-09-30T01:41:42;98312.53;;;5.80;100.00
10921;BME280;5513;50.580;8.818;2022-09-30T01:44:15;98317.19;;;5.74;100.00
10921;BME280;5513;50.580;8.818;2022-09-30T01:46:51;98315.50;;;5.73;100.00
10921;BME280;5513;50.580;8.818;2022-09-30T01:49:26;98315.31;;;5.92;100.00
10921;BME280;5513;50.580;8.818;2022-09-30T01:52:04;98326.97;;;5.87;100.00
10921;BME280;5513;50.580;8.818;2022-09-30T01:54:40;98318.75;;;5.63;100.00
10921;BME280;5513;50.580;8.818;2022-09-30T01:57:13;98320.44;;;5.64;100.00
10921;BME280;5513;50.580;8.818;2022-09-30T01:59:48;98332.19;;;5.72;100.00
10921;BME280;5513;50.580;8.818;2022-09-30T02:02:25;98330.41;;;5.73;100.00
10921;BME280;5513;50.580;8.818;2022-09-30T02:04:57;98330.75;;;5.67;100.00
10921;BME280;5513;50.580;8.818;2022-09-30T02:07:32;98330.28;;;5.60;100.00
10921;BME280;5513;50.580;8.818;2022-09-30T02:10:09;98333.16;;;5.56;100.00
10921;BME280;5513;50.580;8.818;2022-09-30T02:12:44;98331.13;;;5.45;100.00
10921;BME280;5513;50.580;8.818;2022-09-30T02:15:16;98336.47;;;5.43;100.00
10921;BME280;5513;50.580;8.818;2022-09-30T02:17:51;98338.16;;;5.29;100.00
10921;BME280;5513;50.580;8.818;2022-09-30T02:20:28;98335.31;;;5.33;100.00
10921;BME280;5513;50.580;8.818;2022-09-30T02:23:03;98335.03;;;5.38;100.00
10921;BME280;5513;50.580;8.818;2022-09-30T02:25:36;98338.44;;;5.24;100.00
10921;BME280;5513;50.580;8.818;2022-09-30T02:28:12;98332.09;;;5.12;100.00
10921;BME280;5513;50.580;8.818;2022-09-30T02:30:46;98333.69;;;5.15;100.00
10921;BME280;5513;50.580;8.818;2022-09-30T02:33:19;98326.50;;;5.18;100.00
10921;BME280;5513;50.580;8.818;2022-09-30T02:35:54;98329.53;;;5.27;100.00
10921;BME280;5513;50.580;8.818;2022-09-30T02:38:27;98331.75;;;5.18;100.00
10921;BME280;5513;50.580;8.818;2022-09-30T02:41:01;98335.41;;;5.16;100.00
10921;BME280;5513;50.580;8.818;2022-09-30T02:43:33;98333.88;;;4.96;100.00
10921;BME280;5513;50.580;8.818;2022-09-30T02:46:06;98337.84;;;5.03;100.00
10921;BME280;5513;50.580;8.818;2022-09-30T02:48:41;98349.78;;;5.09;100.00
10921;BME280;5513;50.580;8.818;2022-09-30T02:51:16;98341.47;;;5.01;100.00
10921;BME280;5513;50.580;8.818;2022-09-30T02:53:51;98348.00;;;4.94;100.00
10921;BME280;5513;50.580;8.818;2022-09-30T02:56:28;98347.81;;;4.81;100.00
10921;BME280;5513;50.580;8.818;2022-09-30T02:59:01;98350.84;;;4.89;100.00
10921;BME280;5513;50.580;8.818;2022-09-30T03:01:29;98347.47;;;4.87;100.00
10921;BME280;5513;50.580;8.818;2022-09-30T03:04:03;98355.19;;;4.90;100.00
10921;BME280;5513;50.580;8.818;2022-09-30T03:06:34;98358.81;;;4.87;100.00
10921;BME280;5513;50.580;8.818;2022-09-30T03:09:03;98358.16;;;4.84;100.00
10921;BME280;5513;50.580;8.818;2022-09-30T03:11:32;98359.66;;;4.88;100.00
10921;BME280;5513;50.580;8.818;2022-09-30T03:14:26;98352.22;;;4.96;100.00
10921;BME280;5513;50.580;8.818;2022-09-30T03:17:27;98358.06;;;4.85;100.00
10921;BME280;5513;50.580;8.818;2022-09-30T03:20:08;98365.25;;;4.98;100.00
10921;BME280;5513;50.580;8.818;2022-09-30T03:22:59;98367.63;;;4.86;100.00
10921;BME280;5513;50.580;8.818;2022-09-30T03:25:41;98364.38;;;4.81;100.00
10921;BME280;5513;50.580;8.818;2022-09-30T03:28:22;98369.28;;;4.72;100.00
10921;BME280;5513;50.580;8.818;2022-09-30T03:31:00;98365.22;;;4.82;100.00
10921;BME280;5513;50.580;8.818;2022-09-30T03:33:40;98369.13;;;4.91;100.00
10921;BME280;5513;50.580;8.818;2022-09-30T03:36:19;98378.03;;;4.88;100.00
10921;BME280;5513;50.580;8.818;2022-09-30T03:38:57;98380.94;;;4.66;100.00
10921;BME280;5513;50.580;8.818;2022-09-30T03:41:31;98378.06;;;4.71;100.00
10921;BME280;5513;50.580;8.818;2022-09-30T03:44:07;98384.03;;;4.74;100.00
10921;BME280;5513;50.580;8.818;2022-09-30T03:46:41;98375.41;;;4.88;100.00
10921;BME280;5513;50.580;8.818;2022-09-30T03:49:14;98378.97;;;4.87;100.00
10921;BME280;5513;50.580;8.818;2022-09-30T03:51:47;98377.13;;;4.72;100.00
10921;BME280;5513;50.580;8.818;2022-09-30T03:54:19;98375.72;;;4.49;100.00
10921;BME280;5513;50.580;8.818;2022-09-30T03:56:49;98374.31;;;4.59;100.00
10921;BME280;5513;50.580;8.818;2022-09-30T03:59:21;98377.03;;;4.57;100.00
10921;BME280;5513;50.580;8.818;2022-09-30T04:01:51;98388.00;;;4.48;100.00
10921;BME280;5513;50.580;8.818;2022-09-30T04:04:21;98389.09;;;4.44;100.00
10921;BME280;5513;50.580;8.818;2022-09-30T04:06:51;98400.44;;;4.45;100.00
10921;BME280;5513;50.580;8.818;2022-09-30T04:09:20;98404.44;;;4.17;100.00
10921;BME280;5513;50.580;8.818;2022-09-30T04:11:49;98412.69;;;4.27;100.00
10921;BME280;5513;50.580;8.818;2022-09-30T04:14:18;98414.53;;;4.08;100.00
10921;BME280;5513;50.580;8.818;2022-09-30T04:16:46;98414.75;;;4.03;100.00
10921;BME280;5513;50.580;8.818;2022-09-30T04:19:19;98416.22;;;3.91;100.00
10921;BME280;5513;50.580;8.818;2022-09-30T04:21:51;98430.63;;;4.00;100.00
10921;BME280;5513;50.580;8.818;2022-09-30T04:24:20;98432.41;;;3.99;100.00
10921;BME280;5513;50.580;8.818;2022-09-30T04:26:52;98430.25;;;4.08;100.00
10921;BME280;5513;50.580;8.818;2022-09-30T04:29:20;98431.41;;;4.02;100.00
10921;BME280;5513;50.580;8.818;2022-09-30T04:31:49;98434.72;;;4.06;100.00
10921;BME280;5513;50.580;8.818;2022-09-30T04:34:18;98439.66;;;4.12;100.00
10921;BME280;5513;50.580;8.818;2022-09-30T04:36:47;98449.72;;;4.02;100.00
10921;BME280;5513;50.580;8.818;2022-09-30T04:39:17;98459.28;;;4.03;100.00
10921;BME280;5513;50.580;8.818;2022-09-30T04:41:45;98461.66;;;3.90;100.00
10921;BME280;5513;50.580;8.818;2022-09-30T04:44:15;98470.53;;;3.88;100.00
10921;BME280;5513;50.580;8.818;2022-09-30T04:46:43;98469.44;;;3.92;100.00
10921;BME280;5513;50.580;8.818;2022-09-30T04:49:12;98469.13;;;3.81;100.00
10921;BME280;5513;50.580;8.818;2022-09-30T04:51:41;98469.38;;;3.93;100.00
10921;BME280;5513;50.580;8.818;2022-09-30T04:54:12;98471.44;;;3.87;100.00
10921;BME280;5513;50.580;8.818;2022-09-30T04:56:43;98463.72;;;3.84;100.00
10921;BME280;5513;50.580;8.818;2022-09-30T04:59:12;98463.44;;;3.90;100.00
10921;BME280;5513;50.580;8.818;2022-09-30T05:01:40;98474.84;;;3.89;100.00
10921;BME280;5513;50.580;8.818;2022-09-30T05:04:10;98473.91;;;3.90;100.00
10921;BME280;5513;50.580;8.818;2022-09-30T05:06:39;98465.28;;;3.88;100.00
10921;BME280;5513;50.580;8.818;2022-09-30T05:09:08;98470.44;;;3.89;100.00
10921;BME280;5513;50.580;8.818;2022-09-30T05:11:36;98473.69;;;3.94;100.00
10921;BME280;5513;50.580;8.818;2022-09-30T05:14:09;98473.56;;;3.97;100.00
10921;BME280;5513;50.580;8.818;2022-09-30T05:16:41;98468.41;;;3.96;100.00
10921;BME280;5513;50.580;8.818;2022-09-30T05:19:09;98477.88;;;3.98;100.00
10921;BME280;5513;50.580;8.818;2022-09-30T05:21:38;98481.34;;;3.99;100.00
10921;BME280;5513;50.580;8.818;2022-09-30T05:24:12;98488.03;;;4.05;100.00
10921;BME280;5513;50.580;8.818;2022-09-30T05:26:42;98493.75;;;4.13;100.00
10921;BME280;5513;50.580;8.818;2022-09-30T05:29:14;98499.84;;;4.13;100.00
10921;BME280;5513;50.580;8.818;2022-09-30T05:31:45;98499.47;;;4.21;100.00
10921;BME280;5513;50.580;8.818;2022-09-30T05:34:16;98501.09;;;4.06;100.00
10921;BME280;5513;50.580;8.818;2022-09-30T05:36:45;98513.78;;;4.14;100.00
10921;BME280;5513;50.580;8.818;2022-09-30T05:39:14;98532.22;;;4.12;100.00
10921;BME280;5513;50.580;8.818;2022-09-30T05:41:46;98526.03;;;3.96;100.00
10921;BME280;5513;50.580;8.818;2022-09-30T05:44:16;98533.41;;;3.88;100.00
10921;BME280;5513;50.580;8.818;2022-09-30T05:46:45;98531.75;;;3.85;100.00
10921;BME280;5513;50.580;8.818;2022-09-30T05:49:13;98535.59;;;3.97;100.00
10921;BME280;5513;50.580;8.818;2022-09-30T05:51:43;98543.84;;;4.07;100.00
10921;BME280;5513;50.580;8.818;2022-09-30T05:54:13;98549.22;;;3.85;100.00
10921;BME280;5513;50.580;8.818;2022-09-30T05:56:41;98557.03;;;3.86;100.00
10921;BME280;5513;50.580;8.818;2022-09-30T05:59:10;98554.63;;;4.00;100.00
10921;BME280;5513;50.580;8.818;2022-09-30T06:01:41;98562.47;;;4.00;100.00
10921;BME280;5513;50.580;8.818;2022-09-30T06:04:09;98556.13;;;3.87;100.00
10921;BME280;5513;50.580;8.818;2022-09-30T06:06:38;98559.56;;;4.07;100.00
10921;BME280;5513;50.580;8.818;2022-09-30T06:09:06;98566.63;;;4.05;100.00
10921;BME280;5513;50.580;8.818;2022-09-30T06:11:34;98560.91;;;4.15;100.00
10921;BME280;5513;50.580;8.818;2022-09-30T06:14:03;98562.28;;;4.22;100.00
10921;BME280;5513;50.580;8.818;2022-09-30T06:16:32;98565.75;;;4.23;100.00
10921;BME280;5513;50.580;8.818;2022-09-30T06:19:02;98573.53;;;4.24;100.00
10921;BME280;5513;50.580;8.818;2022-09-30T06:21:31;98571.75;;;4.08;100.00
10921;BME280;5513;50.580;8.818;2022-09-30T06:24:03;98577.50;;;4.16;100.00
10921;BME280;5513;50.580;8.818;2022-09-30T06:26:36;98569.88;;;4.28;100.00
10921;BME280;5513;50.580;8.818;2022-09-30T06:29:04;98574.88;;;4.33;100.00
10921;BME280;5513;50.580;8.818;2022-09-30T06:31:33;98579.06;;;4.37;100.00
10921;BME280;5513;50.580;8.818;2022-09-30T06:34:04;98589.81;;;4.50;100.00
10921;BME280;5513;50.580;8.818;2022-09-30T06:36:37;98584.03;;;4.60;100.00
10921;BME280;5513;50.580;8.818;2022-09-30T06:39:05;98579.31;;;4.50;100.00
10921;BME280;5513;50.580;8.818;2022-09-30T06:41:39;98586.13;;;4.54;100.00
10921;BME280;5513;50.580;8.818;2022-09-30T06:44:11;98592.91;;;4.58;100.00
10921;BME280;5513;50.580;8.818;2022-09-30T06:46:41;98588.66;;;4.55;100.00
10921;BME280;5513;50.580;8.818;2022-09-30T06:49:21;98588.75;;;4.71;100.00
10921;BME280;5513;50.580;8.818;2022-09-30T06:51:50;98589.13;;;4.81;100.00
10921;BME280;5513;50.580;8.818;2022-09-30T06:54:20;98596.53;;;4.73;100.00
10921;BME280;5513;50.580;8.818;2022-09-30T06:56:50;98592.78;;;4.78;100.00
10921;BME280;5513;50.580;8.818;2022-09-30T06:59:19;98588.91;;;4.68;100.00
10921;BME280;5513;50.580;8.818;2022-09-30T07:01:48;98589.00;;;4.84;100.00
10921;BME280;5513;50.580;8.818;2022-09-30T07:04:17;98593.34;;;4.85;100.00
10921;BME280;5513;50.580;8.818;2022-09-30T07:06:47;98593.94;;;4.90;100.00
10921;BME280;5513;50.580;8.818;2022-09-30T07:09:16;98592.41;;;5.03;100.00
10921;BME280;5513;50.580;8.818;2022-09-30T07:11:45;98597.78;;;5.00;100.00
10921;BME280;5513;50.580;8.818;2022-09-30T07:14:14;98601.59;;;5.12;100.00
10921;BME280;5513;50.580;8.818;2022-09-30T07:16:42;98606.88;;;5.28;100.00
10921;BME280;5513;50.580;8.818;2022-09-30T07:19:12;98601.09;;;5.38;100.00
10921;BME280;5513;50.580;8.818;2022-09-30T07:21:43;98606.94;;;5.61;100.00
10921;BME280;5513;50.580;8.818;2022-09-30T07:24:13;98604.81;;;5.67;100.00
10921;BME280;5513;50.580;8.818;2022-09-30T07:26:41;98613.72;;;5.65;100.00
10921;BME280;5513;50.580;8.818;2022-09-30T07:29:11;98611.44;;;5.74;100.00
10921;BME280;5513;50.580;8.818;2022-09-30T07:31:40;98616.81;;;5.89;100.00
10921;BME280;5513;50.580;8.818;2022-09-30T07:34:08;98617.69;;;6.05;100.00
10921;BME280;5513;50.580;8.818;2022-09-30T07:36:38;98610.22;;;5.97;100.00
10921;BME280;5513;50.580;8.818;2022-09-30T07:39:08;98612.44;;;6.05;100.00
10921;BME280;5513;50.580;8.818;2022-09-30T07:41:39;98611.25;;;6.26;100.00
10921;BME280;5513;50.580;8.818;2022-09-30T07:44:13;98612.44;;;6.37;100.00
10921;BME280;5513;50.580;8.818;2022-09-30T07:46:42;98616.44;;;6.44;100.00
10921;BME280;5513;50.580;8.818;2022-09-30T07:49:13;98622.72;;;6.57;100.00
10921;BME280;5513;50.580;8.818;2022-09-30T07:51:52;98632.38;;;6.72;100.00
10921;BME280;5513;50.580;8.818;2022-09-30T07:54:24;98631.66;;;6.84;100.00
10921;BME280;5513;50.580;8.818;2022-09-30T07:56:56;98629.59;;;7.05;100.00
10921;BME280;5513;50.580;8.818;2022-09-30T07:59:39;98638.59;;;7.01;100.00
10921;BME280;5513;50.580;8.818;2022-09-30T08:02:16;98638.19;;;7.23;100.00
10921;BME280;5513;50.580;8.818;2022-09-30T08:04:45;98640.69;;;7.10;100.00
10921;BME280;5513;50.580;8.818;2022-09-30T08:07:15;98648.97;;;7.34;100.00
10921;BME280;5513;50.580;8.818;2022-09-30T08:09:44;98646.75;;;7.57;100.00
10921;BME280;5513;50.580;8.818;2022-09-30T08:12:15;98653.25;;;7.80;100.00
10921;BME280;5513;50.580;8.818;2022-09-30T08:14:44;98644.50;;;7.93;100.00
10921;BME280;5513;50.580;8.818;2022-09-30T08:17:13;98649.19;;;7.88;100.00
10921;BME280;5513;50.580;8.818;2022-09-30T08:19:42;98651.75;;;8.04;100.00
10921;BME280;5513;50.580;8.818;2022-09-30T08:22:11;98654.19;;;8.21;100.00
10921;BME280;5513;50.580;8.818;2022-09-30T08:24:40;98653.25;;;8.22;100.00
10921;BME280;5513;50.580;8.818;2022-09-30T08:27:09;98647.41;;;8.17;100.00
10921;BME280;5513;50.580;8.818;2022-09-30T08:29:41;98647.59;;;8.43;100.00
10921;BME280;5513;50.580;8.818;2022-09-30T08:32:30;98641.28;;;8.45;100.00
10921;BME280;5513;50.580;8.818;2022-09-30T08:34:58;98644.47;;;8.50;100.00
10921;BME280;5513;50.580;8.818;2022-09-30T08:37:27;98653.19;;;8.65;100.00
10921;BME280;5513;50.580;8.818;2022-09-30T08:39:57;98655.25;;;8.74;100.00
10921;BME280;5513;50.580;8.818;2022-09-30T08:42:36;98651.53;;;8.77;100.00
10921;BME280;5513;50.580;8.818;2022-09-30T08:45:18;98652.50;;;8.76;100.00
10921;BME280;5513;50.580;8.818;2022-09-30T08:47:54;98644.66;;;8.88;100.00
10921;BME280;5513;50.580;8.818;2022-09-30T08:50:29;98656.59;;;8.94;100.00
10921;BME280;5513;50.580;8.818;2022-09-30T08:53:06;98654.88;;;9.20;100.00
10921;BME280;5513;50.580;8.818;2022-09-30T08:55:40;98659.78;;;9.52;100.00
10921;BME280;5513;50.580;8.818;2022-09-30T08:58:15;98658.22;;;9.09;100.00
10921;BME280;5513;50.580;8.818;2022-09-30T09:00:54;98647.41;;;9.52;100.00
10921;BME280;5513;50.580;8.818;2022-09-30T09:03:27;98657.38;;;9.74;100.00
10921;BME280;5513;50.580;8.818;2022-09-30T09:06:07;98657.16;;;9.90;100.00
10921;BME280;5513;50.580;8.818;2022-09-30T09:08:51;98651.22;;;10.37;100.00
10921;BME280;5513;50.580;8.818;2022-09-30T09:11:36;98643.88;;;10.77;100.00
10921;BME280;5513;50.580;8.818;2022-09-30T09:14:19;98632.56;;;10.75;100.00
10921;BME280;5513;50.580;8.818;2022-09-30T09:17:01;98633.34;;;10.88;100.00
10921;BME280;5513;50.580;8.818;2022-09-30T09:19:42;98626.59;;;10.84;100.00
10921;BME280;5513;50.580;8.818;2022-09-30T09:22:16;98634.09;;;11.26;100.00
10921;BME280;5513;50.580;8.818;2022-09-30T09:24:50;98633.38;;;11.59;100.00
10921;BME280;5513;50.580;8.818;2022-09-30T09:27:25;98629.09;;;11.80;100.00
10921;BME280;5513;50.580;8.818;2022-09-30T09:30:03;98631.75;;;11.91;100.00
10921;BME280;5513;50.580;8.818;2022-09-30T09:32:36;98629.47;;;12.20;100.00
10921;BME280;5513;50.580;8.818;2022-09-30T09:35:13;98630.34;;;11.63;100.00
10921;BME280;5513;50.580;8.818;2022-09-30T09:37:49;98626.31;;;12.15;100.00
10921;BME280;5513;50.580;8.818;2022-09-30T09:40:45;98621.44;;;12.54;100.00
10921;BME280;5513;50.580;8.818;2022-09-30T09:43:30;98618.63;;;12.78;100.00
10921;BME280;5513;50.580;8.818;2022-09-30T09:46:08;98610.19;;;13.05;100.00
10921;BME280;5513;50.580;8.818;2022-09-30T09:48:48;98613.75;;;13.26;100.00
10921;BME280;5513;50.580;8.818;2022-09-30T09:51:21;98621.22;;;13.32;100.00
10921;BME280;5513;50.580;8.818;2022-09-30T09:53:53;98616.78;;;13.22;100.00
10921;BME280;5513;50.580;8.818;2022-09-30T09:56:28;98611.38;;;13.44;100.00
10921;BME280;5513;50.580;8.818;2022-09-30T09:59:07;98609.28;;;13.27;100.00
10921;BME280;5513;50.580;8.818;2022-09-30T10:01:39;98614.88;;;13.96;100.00
10921;BME280;5513;50.580;8.818;2022-09-30T10:04:23;98613.03;;;14.57;100.00
10921;BME280;5513;50.580;8.818;2022-09-30T10:06:54;98606.00;;;14.56;100.00
10921;BME280;5513;50.580;8.818;2022-09-30T10:09:29;98603.38;;;14.76;100.00
10921;BME280;5513;50.580;8.818;2022-09-30T10:12:27;98601.28;;;14.70;100.00
10921;BME280;5513;50.580;8.818;2022-09-30T10:14:59;98606.66;;;14.09;100.00
10921;BME280;5513;50.580;8.818;2022-09-30T10:17:31;98600.66;;;14.56;100.00
10921;BME280;5513;50.580;8.818;2022-09-30T10:20:05;98594.56;;;15.14;100.00
10921;BME280;5513;50.580;8.818;2022-09-30T10:22:35;98584.41;;;15.56;100.00
10921;BME280;5513;50.580;8.818;2022-09-30T10:25:22;98591.94;;;14.45;100.00
10921;BME280;5513;50.580;8.818;2022-09-30T10:27:53;98599.31;;;14.72;100.00
10921;BME280;5513;50.580;8.818;2022-09-30T10:30:38;98589.78;;;15.37;100.00
10921;BME280;5513;50.580;8.818;2022-09-30T10:33:15;98586.97;;;15.00;100.00
10921;BME280;5513;50.580;8.818;2022-09-30T10:35:52;98586.75;;;15.79;100.00
10921;BME280;5513;50.580;8.818;2022-09-30T10:38:24;98592.66;;;16.19;100.00
10921;BME280;5513;50.580;8.818;2022-09-30T10:40:57;98597.47;;;16.16;100.00
10921;BME280;5513;50.580;8.818;2022-09-30T10:43:30;98586.81;;;16.06;100.00
10921;BME280;5513;50.580;8.818;2022-09-30T10:46:01;98591.03;;;16.36;100.00
10921;BME280;5513;50.580;8.818;2022-09-30T10:48:52;98593.66;;;15.71;100.00
10921;BME280;5513;50.580;8.818;2022-09-30T10:51:29;98589.94;;;16.29;100.00
10921;BME280;5513;50.580;8.818;2022-09-30T10:54:01;98585.63;;;16.46;100.00
10921;BME280;5513;50.580;8.818;2022-09-30T10:56:47;98581.06;;;16.56;100.00
10921;BME280;5513;50.580;8.818;2022-09-30T10:59:30;98585.41;;;16.12;100.00
10921;BME280;5513;50.580;8.818;2022-09-30T11:02:15;98590.47;;;16.05;100.00
10921;BME280;5513;50.580;8.818;2022-09-30T11:04:49;98593.84;;;15.12;100.00
10921;BME280;5513;50.580;8.818;2022-09-30T11:07:27;98595.66;;;15.50;100.00
10921;BME280;5513;50.580;8.818;2022-09-30T11:10:02;98588.91;;;14.49;100.00
10921;BME280;5513;50.580;8.818;2022-09-30T11:12:39;98584.44;;;14.69;100.00
10921;BME280;5513;50.580;8.818;2022-09-30T11:15:15;98587.13;;;15.08;100.00
10921;BME280;5513;50.580;8.818;2022-09-30T11:17:51;98590.94;;;15.91;100.00
10921;BME280;5513;50.580;8.818;2022-09-30T11:20:26;98594.53;;;15.62;100.00
10921;BME280;5513;50.580;8.818;2022-09-30T11:23:02;98595.81;;;15.29;100.00
10921;BME280;5513;50.580;8.818;2022-09-30T11:25:41;98595.53;;;15.32;100.00
10921;BME280;5513;50.580;8.818;2022-09-30T11:28:34;98600.03;;;15.03;100.00
10921;BME280;5513;50.580;8.818;2022-09-30T11:31:07;98594.53;;;14.95;100.00
10921;BME280;5513;50.580;8.818;2022-09-30T11:33:50;98592.31;;;15.29;100.00
10921;BME280;5513;50.580;8.818;2022-09-30T11:36:26;98594.47;;;15.82;100.00
10921;BME280;5513;50.580;8.818;2022-09-30T11:39:10;98595.75;;;16.24;100.00
10921;BME280;5513;50.580;8.818;2022-09-30T11:41:48;98590.81;;;16.47;100.00
10921;BME280;5513;50.580;8.818;2022-09-30T11:44:29;98587.06;;;15.56;100.00
10921;BME280;5513;50.580;8.818;2022-09-30T11:47:21;98591.72;;;15.73;100.00
10921;BME280;5513;50.580;8.818;2022-09-30T11:50:05;98587.06;;;16.40;100.00
10921;BME280;5513;50.580;8.818;2022-09-30T11:52:43;98589.16;;;15.72;100.00
10921;BME280;5513;50.580;8.818;2022-09-30T11:55:51;98591.03;;;15.04;100.00
10921;BME280;5513;50.580;8.818;2022-09-30T11:58:25;98584.56;;;16.01;100.00
10921;BME280;5513;50.580;8.818;2022-09-30T12:01:20;98583.88;;;15.99;100.00
10921;BME280;5513;50.580;8.818;2022-09-30T12:04:00;98589.16;;;15.53;100.00
10921;BME280;5513;50.580;8.818;2022-09-30T12:06:36;98585.19;;;15.86;100.00
10921;BME280;5513;50.580;8.818;2022-09-30T12:09:17;98580.16;;;16.65;100.00
10921;BME280;5513;50.580;8.818;2022-09-30T12:11:55;98580.88;;;17.38;96.48
10921;BME280;5513;50.580;8.818;2022-09-30T12:14:32;98584.56;;;17.63;88.45
10921;BME280;5513;50.580;8.818;2022-09-30T12:17:06;98575.47;;;17.74;94.29
10921;BME280;5513;50.580;8.818;2022-09-30T12:19:40;98579.53;;;17.60;92.59
10921;BME280;5513;50.580;8.818;2022-09-30T12:22:15;98584.31;;;17.49;89.89
10921;BME280;5513;50.580;8.818;2022-09-30T12:24:45;98576.06;;;17.86;84.41
10921;BME280;5513;50.580;8.818;2022-09-30T12:27:19;98572.34;;;18.55;80.90
10921;BME280;5513;50.580;8.818;2022-09-30T12:29:57;98578.56;;;17.43;87.86
10921;BME280;5513;50.580;8.818;2022-09-30T12:33:04;98588.94;;;16.30;98.79
10921;BME280;5513;50.580;8.818;2022-09-30T12:35:51;98579.03;;;16.40;99.21
10921;BME280;5513;50.580;8.818;2022-09-30T12:38:36;98578.31;;;17.72;95.04
10921;BME280;5513;50.580;8.818;2022-09-30T12:41:21;98574.50;;;18.59;86.77
10921;BME280;5513;50.580;8.818;2022-09-30T12:44:25;98576.91;;;18.71;79.89
10921;BME280;5513;50.580;8.818;2022-09-30T12:47:09;98579.28;;;18.66;82.26
10921;BME280;5513;50.580;8.818;2022-09-30T12:49:43;98585.47;;;18.24;84.59
10921;BME280;5513;50.580;8.818;2022-09-30T12:52:16;98586.78;;;17.68;87.21
10921;BME280;5513;50.580;8.818;2022-09-30T12:54:58;98583.88;;;17.79;90.32
10921;BME280;5513;50.580;8.818;2022-09-30T12:57:31;98582.56;;;17.83;89.84
10921;BME280;5513;50.580;8.818;2022-09-30T13:00:12;98582.88;;;17.62;93.45
10921;BME280;5513;50.580;8.818;2022-09-30T13:02:45;98575.03;;;16.81;96.79
10921;BME280;5513;50.580;8.818;2022-09-30T13:05:46;98580.38;;;16.99;99.68
10921;BME280;5513;50.580;8.818;2022-09-30T13:11:44;98576.41;;;17.91;94.96
10921;BME280;5513;50.580;8.818;2022-09-30T13:14:30;98576.88;;;16.81;98.58
10921;BME280;5513;50.580;8.818;2022-09-30T13:17:23;98578.31;;;17.55;97.20
10921;BME280;5513;50.580;8.818;2022-09-30T13:19:54;98580.75;;;16.41;100.00
10921;BME280;5513;50.580;8.818;2022-09-30T13:22:56;98577.75;;;17.07;100.00
10921;BME280;5513;50.580;8.818;2022-09-30T13:25:25;98581.00;;;16.66;100.00
10921;BME280;5513;50.580;8.818;2022-09-30T13:28:26;98590.81;;;15.92;100.00
10921;BME280;5513;50.580;8.818;2022-09-30T13:31:12;98589.34;;;16.35;100.00
10921;BME280;5513;50.580;8.818;2022-09-30T13:33:45;98584.25;;;16.42;100.00
10921;BME280;5513;50.580;8.818;2022-09-30T13:36:25;98584.72;;;16.55;100.00
10921;BME280;5513;50.580;8.818;2022-09-30T13:39:18;98586.47;;;16.74;100.00
10921;BME280;5513;50.580;8.818;2022-09-30T13:41:55;98574.88;;;16.55;100.00
10921;BME280;5513;50.580;8.818;2022-09-30T13:44:31;98580.38;;;16.26;100.00
10921;BME280;5513;50.580;8.818;2022-09-30T13:47:14;98579.16;;;16.94;100.00
10921;BME280;5513;50.580;8.818;2022-09-30T13:49:51;98582.06;;;17.18;100.00
10921;BME280;5513;50.580;8.818;2022-09-30T13:52:25;98572.50;;;16.98;100.00
10921;BME280;5513;50.580;8.818;2022-09-30T13:54:57;98579.91;;;16.58;100.00
10921;BME280;5513;50.580;8.818;2022-09-30T13:57:38;98577.75;;;17.25;100.00
10921;BME280;5513;50.580;8.818;2022-09-30T14:00:17;98575.38;;;17.40;100.00
10921;BME280;5513;50.580;8.818;2022-09-30T14:03:09;98579.53;;;18.12;99.28